sensor_id;sensor_type;location;lat;lon;timestamp;P1;durP1;ratioP1;P2;durP2;ratioP2
13171;SDS011;6651;53.200;10.432;2023-04-16T00:00:32;36.42;;;31.05;;
13171;SDS011;6651;53.200;10.432;2023-04-16T00:02:58;37.72;;;31.08;;
13171;SDS011;6651;53.200;10.432;2023-04-16T00:05:24;35.72;;;30.98;;
13171;SDS011;6651;53.200;10.432;2023-04-16T00:07:51;37.90;;;31.50;;
13171;SDS011;6651;53.200;10.432;2023-04-16T00:10:17;37.50;;;31.92;;
13171;SDS011;6651;53.200;10.432;2023-04-16T00:12:43;35.75;;;30.55;;
13171;SDS011;6651;53.200;10.432;2023-04-16T00:15:09;37.25;;;29.63;;
13171;SDS011;6651;53.200;10.432;2023-04-16T00:17:35;38.20;;;31.75;;
13171;SDS011;6651;53.200;10.432;2023-04-16T00:20:01;36.92;;;30.15;;
13171;SDS011;6651;53.200;10.432;2023-04-16T00:22:27;34.75;;;29.77;;
13171;SDS011;6651;53.200;10.432;2023-04-16T00:24:53;36.53;;;30.90;;
13171;SDS011;6651;53.200;10.432;2023-04-16T00:27:19;39.05;;;30.88;;
13171;SDS011;6651;53.200;10.432;2023-04-16T00:29:45;37.25;;;30.38;;
13171;SDS011;6651;53.200;10.432;2023-04-16T00:32:11;34.45;;;30.30;;
13171;SDS011;6651;53.200;10.432;2023-04-16T00:34:37;36.40;;;30.65;;
13171;SDS011;6651;53.200;10.432;2023-04-16T00:37:03;35.38;;;29.27;;
13171;SDS011;6651;53.200;10.432;2023-04-16T00:39:29;36.10;;;30.35;;
13171;SDS011;6651;53.200;10.432;2023-04-16T00:41:55;36.40;;;31.95;;
13171;SDS011;6651;53.200;10.432;2023-04-16T00:44:21;40.03;;;31.08;;
13171;SDS011;6651;53.200;10.432;2023-04-16T00:46:47;37.13;;;30.35;;
13171;SDS011;6651;53.200;10.432;2023-04-16T00:49:14;35.72;;;29.45;;
13171;SDS011;6651;53.200;10.432;2023-04-16T00:51:40;36.25;;;30.10;;
13171;SDS011;6651;53.200;10.432;2023-04-16T00:54:06;41.42;;;32.15;;
13171;SDS011;6651;53.200;10.432;2023-04-16T00:56:33;38.92;;;31.52;;
13171;SDS011;6651;53.200;10.432;2023-04-16T00:59:00;35.60;;;29.48;;
13171;SDS011;6651;53.200;10.432;2023-04-16T01:01:26;37.67;;;30.92;;
13171;SDS011;6651;53.200;10.432;2023-04-16T01:03:52;35.28;;;28.77;;
13171;SDS011;6651;53.200;10.432;2023-04-16T01:06:19;38.05;;;28.80;;
13171;SDS011;6651;53.200;10.432;2023-04-16T01:08:46;35.72;;;30.08;;
13171;SDS011;6651;53.200;10.432;2023-04-16T01:11:13;37.33;;;30.33;;
13171;SDS011;6651;53.200;10.432;2023-04-16T01:13:40;36.75;;;30.83;;
13171;SDS011;6651;53.200;10.432;2023-04-16T01:16:10;35.92;;;29.95;;
13171;SDS011;6651;53.200;10.432;2023-04-16T01:18:36;39.00;;;29.85;;
13171;SDS011;6651;53.200;10.432;2023-04-16T01:21:03;37.83;;;29.90;;
13171;SDS011;6651;53.200;10.432;2023-04-16T01:23:29;39.08;;;29.27;;
13171;SDS011;6651;53.200;10.432;2023-04-16T01:25:55;38.92;;;29.85;;
13171;SDS011;6651;53.200;10.432;2023-04-16T01:28:21;35.78;;;29.55;;
13171;SDS011;6651;53.200;10.432;2023-04-16T01:30:48;37.15;;;29.13;;
13171;SDS011;6651;53.200;10.432;2023-04-16T01:33:14;37.05;;;28.92;;
13171;SDS011;6651;53.200;10.432;2023-04-16T01:35:42;33.75;;;27.98;;
13171;SDS011;6651;53.200;10.432;2023-04-16T01:38:08;35.72;;;28.48;;
13171;SDS011;6651;53.200;10.432;2023-04-16T01:40:35;32.42;;;27.55;;
13171;SDS011;6651;53.200;10.432;2023-04-16T01:43:01;35.83;;;27.48;;
13171;SDS011;6651;53.200;10.432;2023-04-16T01:45:27;35.45;;;28.10;;
13171;SDS011;6651;53.200;10.432;2023-04-16T01:47:53;32.53;;;27.27;;
13171;SDS011;6651;53.200;10.432;2023-04-16T01:50:19;32.75;;;26.70;;
13171;SDS011;6651;53.200;10.432;2023-04-16T01:52:46;32.70;;;27.35;;
13171;SDS011;6651;53.200;10.432;2023-04-16T01:55:12;32.35;;;27.05;;
13171;SDS011;6651;53.200;10.432;2023-04-16T01:57:38;33.97;;;27.90;;
13171;SDS011;6651;53.200;10.432;2023-04-16T02:00:04;32.67;;;26.30;;
13171;SDS011;6651;53.200;10.432;2023-04-16T02:02:31;35.25;;;27.63;;
13171;SDS011;6651;53.200;10.432;2023-04-16T02:04:57;31.42;;;25.73;;
13171;SDS011;6651;53.200;10.432;2023-04-16T02:07:23;30.05;;;25.35;;
13171;SDS011;6651;53.200;10.432;2023-04-16T02:09:49;31.98;;;25.75;;
13171;SDS011;6651;53.200;10.432;2023-04-16T02:12:16;31.17;;;24.85;;
13171;SDS011;6651;53.200;10.432;2023-04-16T02:14:42;30.50;;;25.55;;
13171;SDS011;6651;53.200;10.432;2023-04-16T02:17:08;30.55;;;25.17;;
13171;SDS011;6651;53.200;10.432;2023-04-16T02:19:35;29.80;;;24.73;;
13171;SDS011;6651;53.200;10.432;2023-04-16T02:22:01;30.20;;;24.83;;
13171;SDS011;6651;53.200;10.432;2023-04-16T02:24:27;30.23;;;23.98;;
13171;SDS011;6651;53.200;10.432;2023-04-16T02:26:53;27.33;;;23.45;;
13171;SDS011;6651;53.200;10.432;2023-04-16T02:29:21;28.88;;;24.55;;
13171;SDS011;6651;53.200;10.432;2023-04-16T02:31:47;29.48;;;23.73;;
13171;SDS011;6651;53.200;10.432;2023-04-16T02:34:13;26.83;;;23.02;;
13171;SDS011;6651;53.200;10.432;2023-04-16T02:36:39;28.52;;;22.98;;
13171;SDS011;6651;53.200;10.432;2023-04-16T02:39:05;29.20;;;23.05;;
13171;SDS011;6651;53.200;10.432;2023-04-16T02:41:31;27.80;;;22.73;;
13171;SDS011;6651;53.200;10.432;2023-04-16T02:43:57;27.90;;;22.55;;
13171;SDS011;6651;53.200;10.432;2023-04-16T02:46:23;26.80;;;21.95;;
13171;SDS011;6651;53.200;10.432;2023-04-16T02:48:49;26.17;;;21.42;;
13171;SDS011;6651;53.200;10.432;2023-04-16T02:51:15;27.70;;;21.55;;
13171;SDS011;6651;53.200;10.432;2023-04-16T02:53:41;24.50;;;20.10;;
13171;SDS011;6651;53.200;10.432;2023-04-16T02:56:10;26.10;;;20.73;;
13171;SDS011;6651;53.200;10.432;2023-04-16T02:58:36;28.00;;;21.48;;
13171;SDS011;6651;53.200;10.432;2023-04-16T03:01:02;23.52;;;20.42;;
13171;SDS011;6651;53.200;10.432;2023-04-16T03:03:28;24.42;;;20.42;;
13171;SDS011;6651;53.200;10.432;2023-04-16T03:05:54;24.20;;;21.33;;
13171;SDS011;6651;53.200;10.432;2023-04-16T03:08:20;25.55;;;21.20;;
13171;SDS011;6651;53.200;10.432;2023-04-16T03:10:46;23.70;;;19.48;;
13171;SDS011;6651;53.200;10.432;2023-04-16T03:13:12;25.05;;;19.95;;
13171;SDS011;6651;53.200;10.432;2023-04-16T03:15:38;24.20;;;20.23;;
13171;SDS011;6651;53.200;10.432;2023-04-16T03:18:04;26.80;;;20.63;;
13171;SDS011;6651;53.200;10.432;2023-04-16T03:20:30;24.60;;;20.75;;
13171;SDS011;6651;53.200;10.432;2023-04-16T03:22:56;23.83;;;20.27;;
13171;SDS011;6651;53.200;10.432;2023-04-16T03:25:22;25.38;;;20.30;;
13171;SDS011;6651;53.200;10.432;2023-04-16T03:27:48;25.67;;;20.13;;
13171;SDS011;6651;53.200;10.432;2023-04-16T03:30:15;23.20;;;19.80;;
13171;SDS011;6651;53.200;10.432;2023-04-16T03:32:41;23.70;;;20.23;;
13171;SDS011;6651;53.200;10.432;2023-04-16T03:35:07;23.58;;;19.40;;
13171;SDS011;6651;53.200;10.432;2023-04-16T03:37:34;24.27;;;19.23;;
13171;SDS011;6651;53.200;10.432;2023-04-16T03:40:00;22.52;;;19.83;;
13171;SDS011;6651;53.200;10.432;2023-04-16T03:42:26;26.63;;;19.90;;
13171;SDS011;6651;53.200;10.432;2023-04-16T03:44:52;23.42;;;19.33;;
13171;SDS011;6651;53.200;10.432;2023-04-16T03:47:18;21.13;;;18.58;;
13171;SDS011;6651;53.200;10.432;2023-04-16T03:49:45;22.65;;;18.98;;
13171;SDS011;6651;53.200;10.432;2023-04-16T03:52:11;21.10;;;18.80;;
13171;SDS011;6651;53.200;10.432;2023-04-16T03:54:37;21.10;;;17.77;;
13171;SDS011;6651;53.200;10.432;2023-04-16T03:57:03;21.92;;;18.58;;
13171;SDS011;6651;53.200;10.432;2023-04-16T03:59:29;23.00;;;18.65;;
13171;SDS011;6651;53.200;10.432;2023-04-16T04:01:55;22.38;;;18.65;;
13171;SDS011;6651;53.200;10.432;2023-04-16T04:04:21;21.48;;;18.65;;
13171;SDS011;6651;53.200;10.432;2023-04-16T04:06:47;23.45;;;19.05;;
13171;SDS011;6651;53.200;10.432;2023-04-16T04:09:13;20.83;;;17.88;;
13171;SDS011;6651;53.200;10.432;2023-04-16T04:11:40;23.50;;;18.63;;
13171;SDS011;6651;53.200;10.432;2023-04-16T04:14:06;22.70;;;18.10;;
13171;SDS011;6651;53.200;10.432;2023-04-16T04:16:32;22.15;;;18.13;;
13171;SDS011;6651;53.200;10.432;2023-04-16T04:18:58;22.50;;;18.70;;
13171;SDS011;6651;53.200;10.432;2023-04-16T04:21:25;22.92;;;18.38;;
13171;SDS011;6651;53.200;10.432;2023-04-16T04:23:52;22.73;;;18.10;;
13171;SDS011;6651;53.200;10.432;2023-04-16T04:26:18;23.65;;;18.48;;
13171;SDS011;6651;53.200;10.432;2023-04-16T04:28:45;22.10;;;17.98;;
13171;SDS011;6651;53.200;10.432;2023-04-16T04:31:11;22.63;;;17.48;;
13171;SDS011;6651;53.200;10.432;2023-04-16T04:33:37;19.73;;;17.60;;
13171;SDS011;6651;53.200;10.432;2023-04-16T04:36:03;21.67;;;18.05;;
13171;SDS011;6651;53.200;10.432;2023-04-16T04:38:30;24.02;;;18.10;;
13171;SDS011;6651;53.200;10.432;2023-04-16T04:40:56;21.42;;;18.73;;
13171;SDS011;6651;53.200;10.432;2023-04-16T04:43:22;24.25;;;18.83;;
13171;SDS011;6651;53.200;10.432;2023-04-16T04:45:48;21.38;;;18.10;;
13171;SDS011;6651;53.200;10.432;2023-04-16T04:48:14;22.42;;;18.80;;
13171;SDS011;6651;53.200;10.432;2023-04-16T04:50:41;22.08;;;18.73;;
13171;SDS011;6651;53.200;10.432;2023-04-16T04:53:07;20.95;;;18.23;;
13171;SDS011;6651;53.200;10.432;2023-04-16T04:55:38;22.08;;;17.75;;
13171;SDS011;6651;53.200;10.432;2023-04-16T04:58:05;20.63;;;17.80;;
13171;SDS011;6651;53.200;10.432;2023-04-16T05:00:31;21.30;;;18.52;;
13171;SDS011;6651;53.200;10.432;2023-04-16T05:03:00;21.38;;;17.67;;
13171;SDS011;6651;53.200;10.432;2023-04-16T05:05:26;22.52;;;18.63;;
13171;SDS011;6651;53.200;10.432;2023-04-16T05:07:52;19.80;;;17.05;;
13171;SDS011;6651;53.200;10.432;2023-04-16T05:10:18;22.80;;;18.42;;
13171;SDS011;6651;53.200;10.432;2023-04-16T05:12:45;22.83;;;18.30;;
13171;SDS011;6651;53.200;10.432;2023-04-16T05:15:12;20.92;;;18.42;;
13171;SDS011;6651;53.200;10.432;2023-04-16T05:17:38;22.25;;;18.02;;
13171;SDS011;6651;53.200;10.432;2023-04-16T05:20:04;20.77;;;18.00;;
13171;SDS011;6651;53.200;10.432;2023-04-16T05:22:30;23.23;;;18.75;;
13171;SDS011;6651;53.200;10.432;2023-04-16T05:24:56;19.77;;;17.63;;
13171;SDS011;6651;53.200;10.432;2023-04-16T05:27:22;20.45;;;18.25;;
13171;SDS011;6651;53.200;10.432;2023-04-16T05:29:48;24.40;;;18.33;;
13171;SDS011;6651;53.200;10.432;2023-04-16T05:32:14;20.63;;;17.33;;
13171;SDS011;6651;53.200;10.432;2023-04-16T05:34:40;21.40;;;18.85;;
13171;SDS011;6651;53.200;10.432;2023-04-16T05:37:06;22.55;;;18.05;;
13171;SDS011;6651;53.200;10.432;2023-04-16T05:39:32;21.58;;;18.13;;
13171;SDS011;6651;53.200;10.432;2023-04-16T05:41:58;20.63;;;17.98;;
13171;SDS011;6651;53.200;10.432;2023-04-16T05:44:24;21.83;;;19.42;;
13171;SDS011;6651;53.200;10.432;2023-04-16T05:46:50;21.42;;;17.98;;
13171;SDS011;6651;53.200;10.432;2023-04-16T05:49:16;22.02;;;17.05;;
13171;SDS011;6651;53.200;10.432;2023-04-16T05:51:42;22.98;;;17.95;;
13171;SDS011;6651;53.200;10.432;2023-04-16T05:54:09;22.85;;;17.08;;
13171;SDS011;6651;53.200;10.432;2023-04-16T05:56:35;19.10;;;17.02;;
13171;SDS011;6651;53.200;10.432;2023-04-16T05:59:01;21.58;;;18.75;;
13171;SDS011;6651;53.200;10.432;2023-04-16T06:01:27;22.60;;;17.40;;
13171;SDS011;6651;53.200;10.432;2023-04-16T06:03:53;19.25;;;17.17;;
13171;SDS011;6651;53.200;10.432;2023-04-16T06:06:19;21.90;;;18.15;;
13171;SDS011;6651;53.200;10.432;2023-04-16T06:08:45;21.15;;;18.38;;
13171;SDS011;6651;53.200;10.432;2023-04-16T06:11:11;20.10;;;17.38;;
13171;SDS011;6651;53.200;10.432;2023-04-16T06:13:37;21.90;;;17.55;;
13171;SDS011;6651;53.200;10.432;2023-04-16T06:16:03;22.13;;;18.50;;
13171;SDS011;6651;53.200;10.432;2023-04-16T06:18:29;20.80;;;18.42;;
13171;SDS011;6651;53.200;10.432;2023-04-16T06:20:55;21.88;;;18.42;;
13171;SDS011;6651;53.200;10.432;2023-04-16T06:23:23;19.42;;;16.75;;
13171;SDS011;6651;53.200;10.432;2023-04-16T06:25:49;21.45;;;17.95;;
13171;SDS011;6651;53.200;10.432;2023-04-16T06:28:15;20.95;;;18.45;;
13171;SDS011;6651;53.200;10.432;2023-04-16T06:30:41;20.98;;;18.15;;
13171;SDS011;6651;53.200;10.432;2023-04-16T06:33:07;19.48;;;17.38;;
13171;SDS011;6651;53.200;10.432;2023-04-16T06:35:33;21.25;;;17.52;;
13171;SDS011;6651;53.200;10.432;2023-04-16T06:37:59;22.15;;;17.77;;
13171;SDS011;6651;53.200;10.432;2023-04-16T06:40:25;21.48;;;17.30;;
13171;SDS011;6651;53.200;10.432;2023-04-16T06:42:52;23.23;;;18.20;;
13171;SDS011;6651;53.200;10.432;2023-04-16T06:45:18;23.08;;;18.40;;
13171;SDS011;6651;53.200;10.432;2023-04-16T06:47:44;20.95;;;18.13;;
13171;SDS011;6651;53.200;10.432;2023-04-16T06:50:11;23.52;;;19.25;;
13171;SDS011;6651;53.200;10.432;2023-04-16T06:52:37;20.35;;;18.00;;
13171;SDS011;6651;53.200;10.432;2023-04-16T06:55:03;21.17;;;18.88;;
13171;SDS011;6651;53.200;10.432;2023-04-16T06:57:32;28.02;;;20.02;;
13171;SDS011;6651;53.200;10.432;2023-04-16T06:59:58;21.92;;;19.40;;
13171;SDS011;6651;53.200;10.432;2023-04-16T07:02:24;25.02;;;20.00;;
13171;SDS011;6651;53.200;10.432;2023-04-16T07:04:50;22.40;;;20.00;;
13171;SDS011;6651;53.200;10.432;2023-04-16T07:07:16;23.83;;;20.40;;
13171;SDS011;6651;53.200;10.432;2023-04-16T07:09:42;23.15;;;20.75;;
13171;SDS011;6651;53.200;10.432;2023-04-16T07:12:08;23.98;;;20.10;;
13171;SDS011;6651;53.200;10.432;2023-04-16T07:14:35;22.88;;;20.40;;
13171;SDS011;6651;53.200;10.432;2023-04-16T07:17:01;24.63;;;20.63;;
13171;SDS011;6651;53.200;10.432;2023-04-16T07:19:28;23.58;;;21.10;;
13171;SDS011;6651;53.200;10.432;2023-04-16T07:21:56;24.48;;;20.90;;
13171;SDS011;6651;53.200;10.432;2023-04-16T07:24:22;23.13;;;20.63;;
13171;SDS011;6651;53.200;10.432;2023-04-16T07:26:48;24.23;;;20.75;;
13171;SDS011;6651;53.200;10.432;2023-04-16T07:29:14;25.42;;;20.95;;
13171;SDS011;6651;53.200;10.432;2023-04-16T07:31:40;24.70;;;20.98;;
13171;SDS011;6651;53.200;10.432;2023-04-16T07:34:06;22.88;;;19.17;;
13171;SDS011;6651;53.200;10.432;2023-04-16T07:36:32;23.80;;;19.75;;
13171;SDS011;6651;53.200;10.432;2023-04-16T07:38:58;22.83;;;19.27;;
13171;SDS011;6651;53.200;10.432;2023-04-16T07:41:24;21.05;;;18.85;;
13171;SDS011;6651;53.200;10.432;2023-04-16T07:43:51;24.08;;;19.45;;
13171;SDS011;6651;53.200;10.432;2023-04-16T07:46:17;24.65;;;20.58;;
13171;SDS011;6651;53.200;10.432;2023-04-16T07:48:43;21.20;;;18.90;;
13171;SDS011;6651;53.200;10.432;2023-04-16T07:51:09;23.15;;;18.52;;
13171;SDS011;6651;53.200;10.432;2023-04-16T07:53:35;20.88;;;18.50;;
13171;SDS011;6651;53.200;10.432;2023-04-16T07:56:01;22.05;;;18.60;;
13171;SDS011;6651;53.200;10.432;2023-04-16T07:58:27;21.27;;;18.98;;
13171;SDS011;6651;53.200;10.432;2023-04-16T08:00:53;21.40;;;18.52;;
13171;SDS011;6651;53.200;10.432;2023-04-16T08:03:19;21.13;;;18.65;;
13171;SDS011;6651;53.200;10.432;2023-04-16T08:05:45;19.85;;;17.70;;
13171;SDS011;6651;53.200;10.432;2023-04-16T08:08:11;20.23;;;18.08;;
13171;SDS011;6651;53.200;10.432;2023-04-16T08:10:37;19.10;;;17.20;;
13171;SDS011;6651;53.200;10.432;2023-04-16T08:13:03;20.88;;;17.42;;
13171;SDS011;6651;53.200;10.432;2023-04-16T08:15:29;19.85;;;17.75;;
13171;SDS011;6651;53.200;10.432;2023-04-16T08:17:55;19.23;;;17.23;;
13171;SDS011;6651;53.200;10.432;2023-04-16T08:20:24;19.30;;;17.20;;
13171;SDS011;6651;53.200;10.432;2023-04-16T08:22:52;20.08;;;17.00;;
13171;SDS011;6651;53.200;10.432;2023-04-16T08:25:18;19.58;;;17.45;;
13171;SDS011;6651;53.200;10.432;2023-04-16T08:27:44;21.10;;;16.80;;
13171;SDS011;6651;53.200;10.432;2023-04-16T08:30:10;21.13;;;17.38;;
13171;SDS011;6651;53.200;10.432;2023-04-16T08:32:36;18.95;;;16.40;;
13171;SDS011;6651;53.200;10.432;2023-04-16T08:35:03;19.38;;;17.08;;
13171;SDS011;6651;53.200;10.432;2023-04-16T08:37:29;18.60;;;16.63;;
13171;SDS011;6651;53.200;10.432;2023-04-16T08:39:55;19.15;;;16.58;;
13171;SDS011;6651;53.200;10.432;2023-04-16T08:42:22;20.35;;;17.98;;
13171;SDS011;6651;53.200;10.432;2023-04-16T08:44:48;19.02;;;16.90;;
13171;SDS011;6651;53.200;10.432;2023-04-16T08:47:17;20.30;;;16.90;;
13171;SDS011;6651;53.200;10.432;2023-04-16T08:49:44;19.75;;;17.55;;
13171;SDS011;6651;53.200;10.432;2023-04-16T08:52:14;19.25;;;17.17;;
13171;SDS011;6651;53.200;10.432;2023-04-16T08:57:06;18.73;;;16.75;;
13171;SDS011;6651;53.200;10.432;2023-04-16T08:59:35;21.30;;;17.20;;
13171;SDS011;6651;53.200;10.432;2023-04-16T09:02:02;20.70;;;17.50;;
13171;SDS011;6651;53.200;10.432;2023-04-16T09:04:28;19.40;;;17.33;;
13171;SDS011;6651;53.200;10.432;2023-04-16T09:06:55;19.08;;;16.45;;
13171;SDS011;6651;53.200;10.432;2023-04-16T09:09:21;18.35;;;16.33;;
13171;SDS011;6651;53.200;10.432;2023-04-16T09:11:50;20.75;;;16.63;;
13171;SDS011;6651;53.200;10.432;2023-04-16T09:14:17;19.65;;;16.10;;
13171;SDS011;6651;53.200;10.432;2023-04-16T09:16:44;19.67;;;16.35;;
13171;SDS011;6651;53.200;10.432;2023-04-16T09:19:11;20.52;;;16.85;;
13171;SDS011;6651;53.200;10.432;2023-04-16T09:21:38;19.20;;;17.20;;
13171;SDS011;6651;53.200;10.432;2023-04-16T09:24:05;18.63;;;16.15;;
13171;SDS011;6651;53.200;10.432;2023-04-16T09:26:32;19.30;;;16.02;;
13171;SDS011;6651;53.200;10.432;2023-04-16T09:28:59;18.63;;;16.27;;
13171;SDS011;6651;53.200;10.432;2023-04-16T09:31:25;17.38;;;15.50;;
13171;SDS011;6651;53.200;10.432;2023-04-16T09:34:07;17.85;;;15.95;;
13171;SDS011;6651;53.200;10.432;2023-04-16T09:36:33;18.42;;;16.30;;
13171;SDS011;6651;53.200;10.432;2023-04-16T09:39:00;18.75;;;16.73;;
13171;SDS011;6651;53.200;10.432;2023-04-16T09:41:30;17.67;;;15.88;;
13171;SDS011;6651;53.200;10.432;2023-04-16T09:43:57;17.63;;;15.80;;
13171;SDS011;6651;53.200;10.432;2023-04-16T09:46:30;17.65;;;15.85;;
13171;SDS011;6651;53.200;10.432;2023-04-16T09:48:56;19.05;;;16.23;;
13171;SDS011;6651;53.200;10.432;2023-04-16T09:51:23;19.45;;;16.25;;
13171;SDS011;6651;53.200;10.432;2023-04-16T09:53:51;17.92;;;15.68;;
13171;SDS011;6651;53.200;10.432;2023-04-16T09:56:18;18.27;;;16.38;;
13171;SDS011;6651;53.200;10.432;2023-04-16T09:58:48;18.70;;;16.63;;
13171;SDS011;6651;53.200;10.432;2023-04-16T10:01:14;21.25;;;16.27;;
13171;SDS011;6651;53.200;10.432;2023-04-16T10:03:42;18.75;;;15.32;;
13171;SDS011;6651;53.200;10.432;2023-04-16T10:06:18;16.42;;;14.63;;
13171;SDS011;6651;53.200;10.432;2023-04-16T10:08:51;17.52;;;15.68;;
13171;SDS011;6651;53.200;10.432;2023-04-16T10:11:18;17.95;;;16.08;;
13171;SDS011;6651;53.200;10.432;2023-04-16T10:13:45;17.02;;;15.23;;
13171;SDS011;6651;53.200;10.432;2023-04-16T10:16:11;18.90;;;15.88;;
13171;SDS011;6651;53.200;10.432;2023-04-16T10:18:38;18.23;;;15.25;;
13171;SDS011;6651;53.200;10.432;2023-04-16T10:21:05;17.83;;;15.93;;
13171;SDS011;6651;53.200;10.432;2023-04-16T10:23:32;18.92;;;16.45;;
13171;SDS011;6651;53.200;10.432;2023-04-16T10:25:58;18.85;;;16.80;;
13171;SDS011;6651;53.200;10.432;2023-04-16T10:28:25;17.42;;;15.30;;
13171;SDS011;6651;53.200;10.432;2023-04-16T10:30:53;17.70;;;15.65;;
13171;SDS011;6651;53.200;10.432;2023-04-16T10:33:24;16.75;;;15.05;;
13171;SDS011;6651;53.200;10.432;2023-04-16T10:35:51;16.90;;;14.35;;
13171;SDS011;6651;53.200;10.432;2023-04-16T10:40:47;16.35;;;14.55;;
13171;SDS011;6651;53.200;10.432;2023-04-16T10:43:16;17.02;;;15.23;;
13171;SDS011;6651;53.200;10.432;2023-04-16T10:45:42;16.98;;;14.73;;
13171;SDS011;6651;53.200;10.432;2023-04-16T10:48:08;20.00;;;16.45;;
13171;SDS011;6651;53.200;10.432;2023-04-16T10:50:36;17.08;;;15.05;;
13171;SDS011;6651;53.200;10.432;2023-04-16T10:58:34;20.55;;;17.05;;
13171;SDS011;6651;53.200;10.432;2023-04-16T11:01:00;17.85;;;14.05;;
13171;SDS011;6651;53.200;10.432;2023-04-16T11:03:31;16.55;;;14.68;;
13171;SDS011;6651;53.200;10.432;2023-04-16T11:08:37;16.38;;;14.43;;
13171;SDS011;6651;53.200;10.432;2023-04-16T11:11:04;15.00;;;13.40;;
13171;SDS011;6651;53.200;10.432;2023-04-16T11:13:30;16.23;;;14.18;;
13171;SDS011;6651;53.200;10.432;2023-04-16T11:15:57;16.23;;;14.05;;
13171;SDS011;6651;53.200;10.432;2023-04-16T11:18:23;15.00;;;12.93;;
13171;SDS011;6651;53.200;10.432;2023-04-16T11:20:51;14.45;;;12.95;;
13171;SDS011;6651;53.200;10.432;2023-04-16T11:23:17;14.48;;;12.98;;
13171;SDS011;6651;53.200;10.432;2023-04-16T11:25:43;14.50;;;12.65;;
13171;SDS011;6651;53.200;10.432;2023-04-16T11:28:09;13.75;;;12.25;;
13171;SDS011;6651;53.200;10.432;2023-04-16T11:30:36;13.98;;;12.50;;
13171;SDS011;6651;53.200;10.432;2023-04-16T11:33:06;13.20;;;11.80;;
13171;SDS011;6651;53.200;10.432;2023-04-16T11:35:32;14.55;;;12.90;;
13171;SDS011;6651;53.200;10.432;2023-04-16T11:37:58;15.88;;;12.65;;
13171;SDS011;6651;53.200;10.432;2023-04-16T11:40:28;14.65;;;12.35;;
13171;SDS011;6651;53.200;10.432;2023-04-16T11:42:58;13.35;;;11.55;;
13171;SDS011;6651;53.200;10.432;2023-04-16T11:45:25;13.65;;;12.00;;
13171;SDS011;6651;53.200;10.432;2023-04-16T11:47:52;15.52;;;12.57;;
13171;SDS011;6651;53.200;10.432;2023-04-16T11:52:47;13.90;;;12.00;;
13171;SDS011;6651;53.200;10.432;2023-04-16T11:55:13;13.73;;;11.65;;
13171;SDS011;6651;53.200;10.432;2023-04-16T11:57:39;13.60;;;10.82;;
13171;SDS011;6651;53.200;10.432;2023-04-16T12:00:05;13.43;;;11.50;;
13171;SDS011;6651;53.200;10.432;2023-04-16T12:02:37;13.38;;;11.98;;
13171;SDS011;6651;53.200;10.432;2023-04-16T12:05:04;13.90;;;11.25;;
13171;SDS011;6651;53.200;10.432;2023-04-16T12:07:31;14.60;;;11.45;;
13171;SDS011;6651;53.200;10.432;2023-04-16T12:10:04;13.52;;;11.18;;
13171;SDS011;6651;53.200;10.432;2023-04-16T12:12:31;12.93;;;11.63;;
13171;SDS011;6651;53.200;10.432;2023-04-16T12:14:57;14.38;;;10.88;;
13171;SDS011;6651;53.200;10.432;2023-04-16T12:17:24;11.85;;;10.48;;
13171;SDS011;6651;53.200;10.432;2023-04-16T12:19:51;12.73;;;10.43;;
13171;SDS011;6651;53.200;10.432;2023-04-16T12:22:25;12.10;;;10.55;;
13171;SDS011;6651;53.200;10.432;2023-04-16T12:24:54;10.88;;;9.70;;
13171;SDS011;6651;53.200;10.432;2023-04-16T12:27:21;12.93;;;10.20;;
13171;SDS011;6651;53.200;10.432;2023-04-16T12:30:01;11.30;;;9.80;;
13171;SDS011;6651;53.200;10.432;2023-04-16T12:32:27;10.70;;;9.57;;
13171;SDS011;6651;53.200;10.432;2023-04-16T12:34:53;9.70;;;8.63;;
13171;SDS011;6651;53.200;10.432;2023-04-16T12:37:19;9.80;;;8.80;;
13171;SDS011;6651;53.200;10.432;2023-04-16T12:39:45;9.57;;;8.57;;
13171;SDS011;6651;53.200;10.432;2023-04-16T12:42:12;9.75;;;8.30;;
13171;SDS011;6651;53.200;10.432;2023-04-16T12:44:38;9.65;;;8.35;;
13171;SDS011;6651;53.200;10.432;2023-04-16T12:47:04;8.43;;;7.60;;
13171;SDS011;6651;53.200;10.432;2023-04-16T12:49:30;9.07;;;8.02;;
13171;SDS011;6651;53.200;10.432;2023-04-16T12:51:56;9.23;;;7.60;;
13171;SDS011;6651;53.200;10.432;2023-04-16T12:54:22;9.38;;;8.20;;
13171;SDS011;6651;53.200;10.432;2023-04-16T12:56:52;9.23;;;8.32;;
13171;SDS011;6651;53.200;10.432;2023-04-16T12:59:19;9.57;;;8.57;;
13171;SDS011;6651;53.200;10.432;2023-04-16T13:01:45;10.30;;;8.52;;
13171;SDS011;6651;53.200;10.432;2023-04-16T13:04:11;9.60;;;8.45;;
13171;SDS011;6651;53.200;10.432;2023-04-16T13:06:37;10.55;;;9.55;;
13171;SDS011;6651;53.200;10.432;2023-04-16T13:09:03;10.77;;;9.68;;
13171;SDS011;6651;53.200;10.432;2023-04-16T13:11:29;11.35;;;10.10;;
13171;SDS011;6651;53.200;10.432;2023-04-16T13:13:55;11.05;;;9.95;;
13171;SDS011;6651;53.200;10.432;2023-04-16T13:16:21;11.73;;;9.88;;
13171;SDS011;6651;53.200;10.432;2023-04-16T13:18:47;10.60;;;9.50;;
13171;SDS011;6651;53.200;10.432;2023-04-16T13:21:13;11.55;;;10.35;;
13171;SDS011;6651;53.200;10.432;2023-04-16T13:23:39;11.32;;;10.15;;
13171;SDS011;6651;53.200;10.432;2023-04-16T13:26:05;12.43;;;11.23;;
13171;SDS011;6651;53.200;10.432;2023-04-16T13:28:31;12.38;;;11.07;;
13171;SDS011;6651;53.200;10.432;2023-04-16T13:30:58;13.45;;;10.95;;
13171;SDS011;6651;53.200;10.432;2023-04-16T13:33:24;12.73;;;11.52;;
13171;SDS011;6651;53.200;10.432;2023-04-16T13:35:51;12.68;;;11.32;;
13171;SDS011;6651;53.200;10.432;2023-04-16T13:38:17;12.73;;;11.43;;
13171;SDS011;6651;53.200;10.432;2023-04-16T13:40:43;13.93;;;12.50;;
13171;SDS011;6651;53.200;10.432;2023-04-16T13:43:09;13.13;;;11.13;;
13171;SDS011;6651;53.200;10.432;2023-04-16T13:45:36;12.35;;;10.80;;
13171;SDS011;6651;53.200;10.432;2023-04-16T13:48:02;13.40;;;11.50;;
13171;SDS011;6651;53.200;10.432;2023-04-16T13:50:28;12.90;;;10.80;;
13171;SDS011;6651;53.200;10.432;2023-04-16T13:52:54;14.80;;;11.20;;
13171;SDS011;6651;53.200;10.432;2023-04-16T13:55:20;11.88;;;10.65;;
13171;SDS011;6651;53.200;10.432;2023-04-16T13:57:46;11.98;;;10.77;;
13171;SDS011;6651;53.200;10.432;2023-04-16T14:00:13;14.60;;;10.88;;
13171;SDS011;6651;53.200;10.432;2023-04-16T14:02:40;11.45;;;10.25;;
13171;SDS011;6651;53.200;10.432;2023-04-16T14:05:06;12.38;;;10.27;;
13171;SDS011;6651;53.200;10.432;2023-04-16T14:07:34;13.38;;;10.57;;
13171;SDS011;6651;53.200;10.432;2023-04-16T14:10:00;11.65;;;9.80;;
13171;SDS011;6651;53.200;10.432;2023-04-16T14:12:26;14.45;;;9.80;;
13171;SDS011;6651;53.200;10.432;2023-04-16T14:14:52;12.05;;;9.77;;
13171;SDS011;6651;53.200;10.432;2023-04-16T14:17:18;10.30;;;8.98;;
13171;SDS011;6651;53.200;10.432;2023-04-16T14:19:44;10.40;;;9.10;;
13171;SDS011;6651;53.200;10.432;2023-04-16T14:22:10;11.70;;;9.30;;
13171;SDS011;6651;53.200;10.432;2023-04-16T14:24:36;10.68;;;9.57;;
13171;SDS011;6651;53.200;10.432;2023-04-16T14:27:02;10.98;;;9.45;;
13171;SDS011;6651;53.200;10.432;2023-04-16T14:29:29;11.45;;;9.43;;
13171;SDS011;6651;53.200;10.432;2023-04-16T14:31:55;11.40;;;9.32;;
13171;SDS011;6651;53.200;10.432;2023-04-16T14:34:21;13.43;;;9.45;;